sensor_id;sensor_type;location;lat;lon;timestamp;temperature;humidity
13561;DHT22;6852;51.686;5.314;2022-08-21T00:02:19;17.50;99.90
13561;DHT22;6852;51.686;5.314;2022-08-21T00:04:47;17.50;99.90
13561;DHT22;6852;51.686;5.314;2022-08-21T00:07:23;17.30;99.90
13561;DHT22;6852;51.686;5.314;2022-08-21T00:09:52;17.20;99.90
13561;DHT22;6852;51.686;5.314;2022-08-21T00:12:22;17.30;99.90
13561;DHT22;6852;51.686;5.314;2022-08-21T00:14:49;17.40;99.90
13561;DHT22;6852;51.686;5.314;2022-08-21T00:17:22;17.30;99.90
13561;DHT22;6852;51.686;5.314;2022-08-21T00:19:49;17.30;99.90
13561;DHT22;6852;51.686;5.314;2022-08-21T00:22:16;17.20;99.90
13561;DHT22;6852;51.686;5.314;2022-08-21T00:24:43;17.30;99.90
13561;DHT22;6852;51.686;5.314;2022-08-21T00:27:10;17.30;99.90
13561;DHT22;6852;51.686;5.314;2022-08-21T00:29:37;17.20;99.90
13561;DHT22;6852;51.686;5.314;2022-08-21T00:32:04;17.20;99.90
13561;DHT22;6852;51.686;5.314;2022-08-21T00:34:31;17.00;99.90
13561;DHT22;6852;51.686;5.314;2022-08-21T00:36:58;17.10;99.90
13561;DHT22;6852;51.686;5.314;2022-08-21T00:39:25;17.10;99.90
13561;DHT22;6852;51.686;5.314;2022-08-21T00:41:51;17.20;99.90
13561;DHT22;6852;51.686;5.314;2022-08-21T00:44:18;17.20;99.90
13561;DHT22;6852;51.686;5.314;2022-08-21T00:46:45;17.20;99.90
13561;DHT22;6852;51.686;5.314;2022-08-21T00:49:13;17.10;99.90
13561;DHT22;6852;51.686;5.314;2022-08-21T00:51:53;17.10;99.90
13561;DHT22;6852;51.686;5.314;2022-08-21T00:54:24;17.20;99.90
13561;DHT22;6852;51.686;5.314;2022-08-21T00:56:59;17.10;99.90
13561;DHT22;6852;51.686;5.314;2022-08-21T00:59:28;17.10;99.90
13561;DHT22;6852;51.686;5.314;2022-08-21T01:01:56;17.20;99.90
13561;DHT22;6852;51.686;5.314;2022-08-21T01:04:23;17.20;99.90
13561;DHT22;6852;51.686;5.314;2022-08-21T01:06:50;17.00;99.90
13561;DHT22;6852;51.686;5.314;2022-08-21T01:09:18;17.00;99.90
13561;DHT22;6852;51.686;5.314;2022-08-21T01:11:45;17.00;99.90
13561;DHT22;6852;51.686;5.314;2022-08-21T01:14:14;17.10;99.90
13561;DHT22;6852;51.686;5.314;2022-08-21T01:16:44;16.90;99.90
13561;DHT22;6852;51.686;5.314;2022-08-21T01:19:12;16.90;99.90
13561;DHT22;6852;51.686;5.314;2022-08-21T01:21:40;17.00;99.90
13561;DHT22;6852;51.686;5.314;2022-08-21T01:24:10;17.00;99.90
13561;DHT22;6852;51.686;5.314;2022-08-21T01:26:37;16.90;99.90
13561;DHT22;6852;51.686;5.314;2022-08-21T01:32:14;16.90;99.90
13561;DHT22;6852;51.686;5.314;2022-08-21T01:34:44;17.00;99.90
13561;DHT22;6852;51.686;5.314;2022-08-21T01:37:12;16.70;99.90
13561;DHT22;6852;51.686;5.314;2022-08-21T01:39:40;16.80;99.90
13561;DHT22;6852;51.686;5.314;2022-08-21T01:42:09;16.80;99.90
13561;DHT22;6852;51.686;5.314;2022-08-21T01:44:36;16.80;99.90
13561;DHT22;6852;51.686;5.314;2022-08-21T01:47:06;16.70;99.90
13561;DHT22;6852;51.686;5.314;2022-08-21T01:49:35;16.70;99.90
13561;DHT22;6852;51.686;5.314;2022-08-21T01:52:03;16.50;99.90
13561;DHT22;6852;51.686;5.314;2022-08-21T01:54:30;16.50;99.90
13561;DHT22;6852;51.686;5.314;2022-08-21T01:56:58;16.60;99.90
13561;DHT22;6852;51.686;5.314;2022-08-21T01:59:26;16.70;99.90
13561;DHT22;6852;51.686;5.314;2022-08-21T02:01:53;16.80;99.90
13561;DHT22;6852;51.686;5.314;2022-08-21T02:04:24;16.80;99.90
13561;DHT22;6852;51.686;5.314;2022-08-21T02:06:51;16.80;99.90
13561;DHT22;6852;51.686;5.314;2022-08-21T02:09:19;16.90;99.90
13561;DHT22;6852;51.686;5.314;2022-08-21T02:11:46;16.90;99.90
13561;DHT22;6852;51.686;5.314;2022-08-21T02:14:14;16.80;99.90
13561;DHT22;6852;51.686;5.314;2022-08-21T02:16:58;16.80;99.90
13561;DHT22;6852;51.686;5.314;2022-08-21T02:19:34;16.70;99.90
13561;DHT22;6852;51.686;5.314;2022-08-21T02:22:08;16.60;99.90
13561;DHT22;6852;51.686;5.314;2022-08-21T02:24:37;16.50;99.90
13561;DHT22;6852;51.686;5.314;2022-08-21T02:27:24;16.50;99.90
13561;DHT22;6852;51.686;5.314;2022-08-21T02:29:55;16.60;99.90
13561;DHT22;6852;51.686;5.314;2022-08-21T02:32:23;16.60;99.90
13561;DHT22;6852;51.686;5.314;2022-08-21T02:34:49;16.50;99.90
13561;DHT22;6852;51.686;5.314;2022-08-21T02:37:16;16.50;99.90
13561;DHT22;6852;51.686;5.314;2022-08-21T02:39:43;16.40;99.90
13561;DHT22;6852;51.686;5.314;2022-08-21T02:42:10;16.40;99.90
13561;DHT22;6852;51.686;5.314;2022-08-21T02:44:37;16.40;99.90
13561;DHT22;6852;51.686;5.314;2022-08-21T02:47:04;16.30;99.90
13561;DHT22;6852;51.686;5.314;2022-08-21T02:49:31;16.20;99.90
13561;DHT22;6852;51.686;5.314;2022-08-21T02:51:57;16.40;99.90
13561;DHT22;6852;51.686;5.314;2022-08-21T02:54:24;16.30;99.90
13561;DHT22;6852;51.686;5.314;2022-08-21T02:56:51;16.30;99.90
13561;DHT22;6852;51.686;5.314;2022-08-21T02:59:18;16.30;99.90
13561;DHT22;6852;51.686;5.314;2022-08-21T03:01:45;16.20;99.90
13561;DHT22;6852;51.686;5.314;2022-08-21T03:04:12;16.20;99.90
13561;DHT22;6852;51.686;5.314;2022-08-21T03:06:39;16.30;99.90
13561;DHT22;6852;51.686;5.314;2022-08-21T03:09:06;16.20;99.90
13561;DHT22;6852;51.686;5.314;2022-08-21T03:11:32;16.10;99.90
13561;DHT22;6852;51.686;5.314;2022-08-21T03:13:59;16.20;99.90
13561;DHT22;6852;51.686;5.314;2022-08-21T03:16:26;16.10;99.90
13561;DHT22;6852;51.686;5.314;2022-08-21T03:18:58;16.10;99.90
13561;DHT22;6852;51.686;5.314;2022-08-21T03:21:26;16.20;99.90
13561;DHT22;6852;51.686;5.314;2022-08-21T03:23:53;16.20;99.90
13561;DHT22;6852;51.686;5.314;2022-08-21T03:26:20;16.20;99.90
13561;DHT22;6852;51.686;5.314;2022-08-21T03:28:49;16.10;99.90
13561;DHT22;6852;51.686;5.314;2022-08-21T03:31:17;16.00;99.90
13561;DHT22;6852;51.686;5.314;2022-08-21T03:33:44;16.00;99.90
13561;DHT22;6852;51.686;5.314;2022-08-21T03:36:11;16.10;99.90
13561;DHT22;6852;51.686;5.314;2022-08-21T03:38:38;16.00;99.90
13561;DHT22;6852;51.686;5.314;2022-08-21T03:41:06;16.00;99.90
13561;DHT22;6852;51.686;5.314;2022-08-21T03:43:34;16.00;99.90
13561;DHT22;6852;51.686;5.314;2022-08-21T03:46:02;16.00;99.90
13561;DHT22;6852;51.686;5.314;2022-08-21T03:48:30;16.00;99.90
13561;DHT22;6852;51.686;5.314;2022-08-21T03:50:57;16.00;99.90
13561;DHT22;6852;51.686;5.314;2022-08-21T03:53:24;15.90;99.90
13561;DHT22;6852;51.686;5.314;2022-08-21T03:55:51;16.00;99.90
13561;DHT22;6852;51.686;5.314;2022-08-21T03:58:21;15.90;99.90
13561;DHT22;6852;51.686;5.314;2022-08-21T04:00:50;15.90;99.90
13561;DHT22;6852;51.686;5.314;2022-08-21T04:03:18;15.80;99.90
13561;DHT22;6852;51.686;5.314;2022-08-21T04:05:46;15.90;99.90
13561;DHT22;6852;51.686;5.314;2022-08-21T04:08:14;15.70;99.90
13561;DHT22;6852;51.686;5.314;2022-08-21T04:10:42;15.60;99.90
13561;DHT22;6852;51.686;5.314;2022-08-21T04:13:10;15.50;99.90
13561;DHT22;6852;51.686;5.314;2022-08-21T04:15:37;15.70;99.90
13561;DHT22;6852;51.686;5.314;2022-08-21T04:18:04;15.60;99.90
13561;DHT22;6852;51.686;5.314;2022-08-21T04:20:32;15.60;99.90
13561;DHT22;6852;51.686;5.314;2022-08-21T04:22:59;15.60;99.90
13561;DHT22;6852;51.686;5.314;2022-08-21T04:25:26;15.60;99.90
13561;DHT22;6852;51.686;5.314;2022-08-21T04:27:54;15.60;99.90
13561;DHT22;6852;51.686;5.314;2022-08-21T04:30:21;15.50;99.90
13561;DHT22;6852;51.686;5.314;2022-08-21T04:32:55;15.30;99.90
13561;DHT22;6852;51.686;5.314;2022-08-21T04:35:25;15.30;99.90
13561;DHT22;6852;51.686;5.314;2022-08-21T04:37:52;15.30;99.90
13561;DHT22;6852;51.686;5.314;2022-08-21T04:40:20;15.40;99.90
13561;DHT22;6852;51.686;5.314;2022-08-21T04:43:02;15.40;99.90
13561;DHT22;6852;51.686;5.314;2022-08-21T04:47:59;15.40;99.90
13561;DHT22;6852;51.686;5.314;2022-08-21T04:50:35;15.30;99.90
13561;DHT22;6852;51.686;5.314;2022-08-21T04:53:08;15.40;99.90
13561;DHT22;6852;51.686;5.314;2022-08-21T04:55:36;15.40;99.90
13561;DHT22;6852;51.686;5.314;2022-08-21T04:58:09;15.30;99.90
13561;DHT22;6852;51.686;5.314;2022-08-21T05:00:38;15.30;99.90
13561;DHT22;6852;51.686;5.314;2022-08-21T05:03:06;15.20;99.90
13561;DHT22;6852;51.686;5.314;2022-08-21T05:05:34;15.20;99.90
13561;DHT22;6852;51.686;5.314;2022-08-21T05:08:02;15.30;99.90
13561;DHT22;6852;51.686;5.314;2022-08-21T05:10:29;15.40;99.90
13561;DHT22;6852;51.686;5.314;2022-08-21T05:12:58;15.40;99.90
13561;DHT22;6852;51.686;5.314;2022-08-21T05:15:27;15.30;99.90
13561;DHT22;6852;51.686;5.314;2022-08-21T05:17:53;15.40;99.90
13561;DHT22;6852;51.686;5.314;2022-08-21T05:20:27;15.40;99.90
13561;DHT22;6852;51.686;5.314;2022-08-21T05:22:54;15.50;99.90
13561;DHT22;6852;51.686;5.314;2022-08-21T05:25:21;15.40;99.90
13561;DHT22;6852;51.686;5.314;2022-08-21T05:27:49;15.30;99.90
13561;DHT22;6852;51.686;5.314;2022-08-21T05:30:19;15.40;99.90
13561;DHT22;6852;51.686;5.314;2022-08-21T05:32:46;15.50;99.90
13561;DHT22;6852;51.686;5.314;2022-08-21T05:35:14;15.40;99.90
13561;DHT22;6852;51.686;5.314;2022-08-21T05:37:41;15.60;99.90
13561;DHT22;6852;51.686;5.314;2022-08-21T05:40:08;15.60;99.90
13561;DHT22;6852;51.686;5.314;2022-08-21T05:42:52;15.50;99.90
13561;DHT22;6852;51.686;5.314;2022-08-21T05:45:29;15.40;99.90
13561;DHT22;6852;51.686;5.314;2022-08-21T05:48:20;15.40;99.90
13561;DHT22;6852;51.686;5.314;2022-08-21T05:50:49;15.50;99.90
13561;DHT22;6852;51.686;5.314;2022-08-21T05:53:17;15.70;99.90
13561;DHT22;6852;51.686;5.314;2022-08-21T05:55:45;15.60;99.90
13561;DHT22;6852;51.686;5.314;2022-08-21T05:58:15;15.80;99.90
13561;DHT22;6852;51.686;5.314;2022-08-21T06:00:43;15.80;99.90
13561;DHT22;6852;51.686;5.314;2022-08-21T06:03:22;15.60;99.90
13561;DHT22;6852;51.686;5.314;2022-08-21T06:05:49;15.70;99.90
13561;DHT22;6852;51.686;5.314;2022-08-21T06:08:17;15.80;99.90
13561;DHT22;6852;51.686;5.314;2022-08-21T06:10:46;15.60;99.90
13561;DHT22;6852;51.686;5.314;2022-08-21T06:13:14;15.70;99.90
13561;DHT22;6852;51.686;5.314;2022-08-21T06:15:42;15.70;99.90
13561;DHT22;6852;51.686;5.314;2022-08-21T06:18:09;15.70;99.90
13561;DHT22;6852;51.686;5.314;2022-08-21T06:20:37;15.80;99.90
13561;DHT22;6852;51.686;5.314;2022-08-21T06:23:04;15.90;99.90
13561;DHT22;6852;51.686;5.314;2022-08-21T06:25:31;15.90;99.90
13561;DHT22;6852;51.686;5.314;2022-08-21T06:28:06;16.00;99.90
13561;DHT22;6852;51.686;5.314;2022-08-21T06:30:34;16.10;99.90
13561;DHT22;6852;51.686;5.314;2022-08-21T06:33:02;16.30;99.90
13561;DHT22;6852;51.686;5.314;2022-08-21T06:35:30;16.40;99.90
13561;DHT22;6852;51.686;5.314;2022-08-21T06:37:57;16.40;99.90
13561;DHT22;6852;51.686;5.314;2022-08-21T06:40:25;16.50;99.90
13561;DHT22;6852;51.686;5.314;2022-08-21T06:42:56;16.50;99.90
13561;DHT22;6852;51.686;5.314;2022-08-21T06:45:24;16.60;99.90
13561;DHT22;6852;51.686;5.314;2022-08-21T06:47:53;16.70;99.90
13561;DHT22;6852;51.686;5.314;2022-08-21T06:50:20;16.80;99.90
13561;DHT22;6852;51.686;5.314;2022-08-21T06:52:47;16.90;99.90
13561;DHT22;6852;51.686;5.314;2022-08-21T06:55:14;17.30;99.90
13561;DHT22;6852;51.686;5.314;2022-08-21T06:57:48;17.40;99.90
13561;DHT22;6852;51.686;5.314;2022-08-21T07:00:18;17.50;99.90
13561;DHT22;6852;51.686;5.314;2022-08-21T07:02:45;17.60;99.90
13561;DHT22;6852;51.686;5.314;2022-08-21T07:05:12;17.90;99.90
13561;DHT22;6852;51.686;5.314;2022-08-21T07:07:44;17.90;99.90
13561;DHT22;6852;51.686;5.314;2022-08-21T07:10:12;17.80;99.90
13561;DHT22;6852;51.686;5.314;2022-08-21T07:12:47;18.00;99.90
13561;DHT22;6852;51.686;5.314;2022-08-21T07:15:16;18.10;99.90
13561;DHT22;6852;51.686;5.314;2022-08-21T07:17:43;18.30;99.90
13561;DHT22;6852;51.686;5.314;2022-08-21T07:20:10;18.40;99.90
13561;DHT22;6852;51.686;5.314;2022-08-21T07:22:39;18.30;99.90
13561;DHT22;6852;51.686;5.314;2022-08-21T07:25:08;18.50;99.90
13561;DHT22;6852;51.686;5.314;2022-08-21T07:27:35;18.60;99.90
13561;DHT22;6852;51.686;5.314;2022-08-21T07:30:04;18.60;99.90
13561;DHT22;6852;51.686;5.314;2022-08-21T07:32:31;18.80;99.90
13561;DHT22;6852;51.686;5.314;2022-08-21T07:34:58;18.90;99.90
13561;DHT22;6852;51.686;5.314;2022-08-21T07:37:25;19.00;99.90
13561;DHT22;6852;51.686;5.314;2022-08-21T07:39:52;19.20;99.90
13561;DHT22;6852;51.686;5.314;2022-08-21T07:42:19;19.20;99.90
13561;DHT22;6852;51.686;5.314;2022-08-21T07:44:45;19.30;99.90
13561;DHT22;6852;51.686;5.314;2022-08-21T07:47:15;19.20;99.90
13561;DHT22;6852;51.686;5.314;2022-08-21T07:50:02;19.20;99.90
13561;DHT22;6852;51.686;5.314;2022-08-21T07:52:30;19.40;99.90
13561;DHT22;6852;51.686;5.314;2022-08-21T07:54:59;19.60;99.90
13561;DHT22;6852;51.686;5.314;2022-08-21T07:57:32;19.60;99.90
13561;DHT22;6852;51.686;5.314;2022-08-21T07:59:59;19.80;99.90
13561;DHT22;6852;51.686;5.314;2022-08-21T08:02:28;19.90;99.90
13561;DHT22;6852;51.686;5.314;2022-08-21T08:05:00;19.70;99.90
13561;DHT22;6852;51.686;5.314;2022-08-21T08:07:27;19.60;99.90
13561;DHT22;6852;51.686;5.314;2022-08-21T08:09:54;19.70;99.90
13561;DHT22;6852;51.686;5.314;2022-08-21T08:12:21;19.90;99.90
13561;DHT22;6852;51.686;5.314;2022-08-21T08:14:48;20.20;99.90
13561;DHT22;6852;51.686;5.314;2022-08-21T08:17:15;20.30;99.90
13561;DHT22;6852;51.686;5.314;2022-08-21T08:19:42;20.40;99.90
13561;DHT22;6852;51.686;5.314;2022-08-21T08:22:14;20.30;99.90
13561;DHT22;6852;51.686;5.314;2022-08-21T08:24:41;20.50;99.90
13561;DHT22;6852;51.686;5.314;2022-08-21T08:27:08;20.70;99.90
13561;DHT22;6852;51.686;5.314;2022-08-21T08:29:35;20.90;99.90
13561;DHT22;6852;51.686;5.314;2022-08-21T08:32:03;20.90;99.90
13561;DHT22;6852;51.686;5.314;2022-08-21T08:34:30;21.00;99.90
13561;DHT22;6852;51.686;5.314;2022-08-21T08:36:57;20.90;99.90
13561;DHT22;6852;51.686;5.314;2022-08-21T08:39:27;20.90;99.90
13561;DHT22;6852;51.686;5.314;2022-08-21T08:42:06;20.90;99.90
13561;DHT22;6852;51.686;5.314;2022-08-21T08:45:09;21.10;99.90
13561;DHT22;6852;51.686;5.314;2022-08-21T08:47:42;21.30;99.90
13561;DHT22;6852;51.686;5.314;2022-08-21T08:52:43;21.90;99.90
13561;DHT22;6852;51.686;5.314;2022-08-21T08:55:19;21.70;99.90
13561;DHT22;6852;51.686;5.314;2022-08-21T08:57:53;21.70;99.90
13561;DHT22;6852;51.686;5.314;2022-08-21T09:00:23;21.90;99.90
13561;DHT22;6852;51.686;5.314;2022-08-21T09:02:54;21.60;99.90
13561;DHT22;6852;51.686;5.314;2022-08-21T09:05:27;22.30;99.90
13561;DHT22;6852;51.686;5.314;2022-08-21T09:11:10;23.30;99.90
13561;DHT22;6852;51.686;5.314;2022-08-21T09:21:42;23.30;99.90
13561;DHT22;6852;51.686;5.314;2022-08-21T09:24:34;23.20;99.90
13561;DHT22;6852;51.686;5.314;2022-08-21T09:27:10;23.50;99.90
13561;DHT22;6852;51.686;5.314;2022-08-21T09:29:41;23.40;99.90
13561;DHT22;6852;51.686;5.314;2022-08-21T09:35:18;22.90;99.90
13561;DHT22;6852;51.686;5.314;2022-08-21T09:38:09;23.10;99.90
13561;DHT22;6852;51.686;5.314;2022-08-21T09:40:37;23.60;99.90
13561;DHT22;6852;51.686;5.314;2022-08-21T09:43:18;23.90;99.90
13561;DHT22;6852;51.686;5.314;2022-08-21T09:45:46;24.10;99.90
13561;DHT22;6852;51.686;5.314;2022-08-21T09:48:22;23.60;99.90
13561;DHT22;6852;51.686;5.314;2022-08-21T09:50:53;23.30;99.90
13561;DHT22;6852;51.686;5.314;2022-08-21T09:53:24;23.70;99.90
13561;DHT22;6852;51.686;5.314;2022-08-21T09:55:56;24.20;99.90
13561;DHT22;6852;51.686;5.314;2022-08-21T09:58:46;24.20;99.90
13561;DHT22;6852;51.686;5.314;2022-08-21T10:01:24;24.40;99.90
13561;DHT22;6852;51.686;5.314;2022-08-21T10:04:08;24.00;99.90
13561;DHT22;6852;51.686;5.314;2022-08-21T10:06:35;23.30;99.90
13561;DHT22;6852;51.686;5.314;2022-08-21T10:09:17;23.70;99.90
13561;DHT22;6852;51.686;5.314;2022-08-21T10:14:50;22.90;99.90
13561;DHT22;6852;51.686;5.314;2022-08-21T10:17:43;22.80;99.90
13561;DHT22;6852;51.686;5.314;2022-08-21T10:20:23;22.80;99.90
13561;DHT22;6852;51.686;5.314;2022-08-21T10:25:49;22.90;99.90
13561;DHT22;6852;51.686;5.314;2022-08-21T10:29:01;23.10;99.90
13561;DHT22;6852;51.686;5.314;2022-08-21T10:40:14;23.10;99.90
13561;DHT22;6852;51.686;5.314;2022-08-21T10:48:59;23.50;99.90
13561;DHT22;6852;51.686;5.314;2022-08-21T10:54:26;23.40;99.90
13561;DHT22;6852;51.686;5.314;2022-08-21T10:57:02;23.50;99.90
13561;DHT22;6852;51.686;5.314;2022-08-21T10:59:55;23.70;99.90
13561;DHT22;6852;51.686;5.314;2022-08-21T11:02:31;24.00;99.90
13561;DHT22;6852;51.686;5.314;2022-08-21T11:05:05;23.60;99.90
13561;DHT22;6852;51.686;5.314;2022-08-21T11:07:43;23.30;99.90
13561;DHT22;6852;51.686;5.314;2022-08-21T11:10:27;23.00;99.90
13561;DHT22;6852;51.686;5.314;2022-08-21T11:13:07;23.00;99.90
13561;DHT22;6852;51.686;5.314;2022-08-21T11:15:51;23.20;99.90
13561;DHT22;6852;51.686;5.314;2022-08-21T11:18:33;23.30;99.90
13561;DHT22;6852;51.686;5.314;2022-08-21T11:21:38;23.20;99.90
13561;DHT22;6852;51.686;5.314;2022-08-21T11:27:09;23.80;99.90
13561;DHT22;6852;51.686;5.314;2022-08-21T11:29:44;23.80;99.90
13561;DHT22;6852;51.686;5.314;2022-08-21T11:46:28;27.30;99.90
13561;DHT22;6852;51.686;5.314;2022-08-21T11:54:40;27.40;99.90
13561;DHT22;6852;51.686;5.314;2022-08-21T11:57:35;26.70;99.90
13561;DHT22;6852;51.686;5.314;2022-08-21T12:00:16;26.00;99.90
13561;DHT22;6852;51.686;5.314;2022-08-21T12:02:51;25.30;99.90
13561;DHT22;6852;51.686;5.314;2022-08-21T12:05:38;25.90;99.90
13561;DHT22;6852;51.686;5.314;2022-08-21T12:08:25;25.10;99.90
13561;DHT22;6852;51.686;5.314;2022-08-21T12:11:05;24.70;99.90
13561;DHT22;6852;51.686;5.314;2022-08-21T12:13:53;25.30;99.90
13561;DHT22;6852;51.686;5.314;2022-08-21T12:16:32;26.40;99.90
13561;DHT22;6852;51.686;5.314;2022-08-21T12:21:30;28.30;99.90
13561;DHT22;6852;51.686;5.314;2022-08-21T12:29:32;25.30;99.90
13561;DHT22;6852;51.686;5.314;2022-08-21T12:35:05;26.10;99.90
13561;DHT22;6852;51.686;5.314;2022-08-21T12:37:44;25.20;99.90
13561;DHT22;6852;51.686;5.314;2022-08-21T12:40:37;25.40;99.90
13561;DHT22;6852;51.686;5.314;2022-08-21T12:43:11;25.60;99.90
13561;DHT22;6852;51.686;5.314;2022-08-21T12:45:44;26.10;99.90
13561;DHT22;6852;51.686;5.314;2022-08-21T12:51:17;25.40;99.90
13561;DHT22;6852;51.686;5.314;2022-08-21T12:53:56;25.40;99.90
13561;DHT22;6852;51.686;5.314;2022-08-21T12:56:29;25.20;99.90
13561;DHT22;6852;51.686;5.314;2022-08-21T12:59:01;25.20;99.90
13561;DHT22;6852;51.686;5.314;2022-08-21T13:01:36;26.60;99.90
13561;DHT22;6852;51.686;5.314;2022-08-21T13:04:11;27.20;99.90
13561;DHT22;6852;51.686;5.314;2022-08-21T13:06:45;26.00;99.90
13561;DHT22;6852;51.686;5.314;2022-08-21T13:09:14;25.40;99.90
13561;DHT22;6852;51.686;5.314;2022-08-21T13:11:45;25.90;99.90
13561;DHT22;6852;51.686;5.314;2022-08-21T13:14:27;25.30;99.90
13561;DHT22;6852;51.686;5.314;2022-08-21T13:16:57;25.20;99.90
13561;DHT22;6852;51.686;5.314;2022-08-21T13:19:26;24.80;99.90
13561;DHT22;6852;51.686;5.314;2022-08-21T13:21:53;24.80;99.90
13561;DHT22;6852;51.686;5.314;2022-08-21T13:27:28;26.60;99.90
13561;DHT22;6852;51.686;5.314;2022-08-21T13:30:09;25.20;99.90
13561;DHT22;6852;51.686;5.314;2022-08-21T13:32:41;24.70;99.90
13561;DHT22;6852;51.686;5.314;2022-08-21T13:35:15;24.30;99.90
13561;DHT22;6852;51.686;5.314;2022-08-21T13:37:43;24.70;99.90
13561;DHT22;6852;51.686;5.314;2022-08-21T13:40:18;24.80;99.90
13561;DHT22;6852;51.686;5.314;2022-08-21T13:42:47;24.50;99.90
13561;DHT22;6852;51.686;5.314;2022-08-21T13:45:31;24.10;99.90
13561;DHT22;6852;51.686;5.314;2022-08-21T13:48:00;24.40;99.90
13561;DHT22;6852;51.686;5.314;2022-08-21T13:50:34;24.60;99.90
13561;DHT22;6852;51.686;5.314;2022-08-21T13:53:04;24.80;99.90
13561;DHT22;6852;51.686;5.314;2022-08-21T13:55:42;24.50;99.90
13561;DHT22;6852;51.686;5.314;2022-08-21T13:58:11;24.50;99.90
13561;DHT22;6852;51.686;5.314;2022-08-21T14:00:51;24.50;99.90
13561;DHT22;6852;51.686;5.314;2022-08-21T14:03:50;25.50;99.90
13561;DHT22;6852;51.686;5.314;2022-08-21T14:06:22;24.70;99.90
13561;DHT22;6852;51.686;5.314;2022-08-21T14:08:53;25.00;99.90
13561;DHT22;6852;51.686;5.314;2022-08-21T14:11:21;25.60;99.90
13561;DHT22;6852;51.686;5.314;2022-08-21T14:14:00;26.30;99.90
13561;DHT22;6852;51.686;5.314;2022-08-21T14:16:45;26.60;99.90
13561;DHT22;6852;51.686;5.314;2022-08-21T14:19:22;26.50;99.90
13561;DHT22;6852;51.686;5.314;2022-08-21T14:21:49;26.00;99.90
13561;DHT22;6852;51.686;5.314;2022-08-21T14:26:55;24.30;99.90
13561;DHT22;6852;51.686;5.314;2022-08-21T14:29:25;24.50;99.90
13561;DHT22;6852;51.686;5.314;2022-08-21T14:32:00;24.70;99.90
13561;DHT22;6852;51.686;5.314;2022-08-21T14:34:47;25.00;99.90
13561;DHT22;6852;51.686;5.314;2022-08-21T14:37:14;25.00;99.90
13561;DHT22;6852;51.686;5.314;2022-08-21T14:39:41;24.80;99.90
13561;DHT22;6852;51.686;5.314;2022-08-21T14:42:12;24.70;99.90
13561;DHT22;6852;51.686;5.314;2022-08-21T14:44:39;24.40;99.90
13561;DHT22;6852;51.686;5.314;2022-08-21T14:47:05;24.40;99.90
13561;DHT22;6852;51.686;5.314;2022-08-21T14:49:33;24.00;99.90
13561;DHT22;6852;51.686;5.314;2022-08-21T14:51:59;24.10;99.90
13561;DHT22;6852;51.686;5.314;2022-08-21T14:54:29;24.60;99.90
13561;DHT22;6852;51.686;5.314;2022-08-21T14:57:04;24.60;99.90
13561;DHT22;6852;51.686;5.314;2022-08-21T14:59:32;24.90;99.90
13561;DHT22;6852;51.686;5.314;2022-08-21T15:02:00;24.80;99.90
13561;DHT22;6852;51.686;5.314;2022-08-21T15:04:27;24.50;99.90
13561;DHT22;6852;51.686;5.314;2022-08-21T15:06:54;24.10;99.90
13561;DHT22;6852;51.686;5.314;2022-08-21T15:09:22;23.90;99.90
13561;DHT22;6852;51.686;5.314;2022-08-21T15:11:53;23.80;99.90
13561;DHT22;6852;51.686;5.314;2022-08-21T15:14:24;23.80;99.90
13561;DHT22;6852;51.686;5.314;2022-08-21T15:16:51;23.80;99.90
13561;DHT22;6852;51.686;5.314;2022-08-21T15:19:18;23.90;99.90
13561;DHT22;6852;51.686;5.314;2022-08-21T15:21:45;23.90;99.90
13561;DHT22;6852;51.686;5.314;2022-08-21T15:24:12;23.80;99.90
13561;DHT22;6852;51.686;5.314;2022-08-21T15:26:39;23.70;99.90
13561;DHT22;6852;51.686;5.314;2022-08-21T15:29:07;23.90;99.90
13561;DHT22;6852;51.686;5.314;2022-08-21T15:31:35;24.00;99.90
13561;DHT22;6852;51.686;5.314;2022-08-21T15:34:02;24.20;99.90
13561;DHT22;6852;51.686;5.314;2022-08-21T15:36:29;24.10;99.90
13561;DHT22;6852;51.686;5.314;2022-08-21T15:38:56;23.80;99.90
13561;DHT22;6852;51.686;5.314;2022-08-21T15:41:23;24.00;99.90
13561;DHT22;6852;51.686;5.314;2022-08-21T15:43:51;24.00;99.90
13561;DHT22;6852;51.686;5.314;2022-08-21T15:46:19;23.90;99.90
13561;DHT22;6852;51.686;5.314;2022-08-21T15:48:47;23.80;99.90
13561;DHT22;6852;51.686;5.314;2022-08-21T15:51:16;24.00;99.90
13561;DHT22;6852;51.686;5.314;2022-08-21T15:53:43;24.00;99.90
13561;DHT22;6852;51.686;5.314;2022-08-21T15:56:26;24.10;99.90
13561;DHT22;6852;51.686;5.314;2022-08-21T15:59:00;23.90;99.90
13561;DHT22;6852;51.686;5.314;2022-08-21T16:01:28;23.80;99.90
13561;DHT22;6852;51.686;5.314;2022-08-21T16:04:10;23.80;99.90
13561;DHT22;6852;51.686;5.314;2022-08-21T16:06:41;23.60;99.90
13561;DHT22;6852;51.686;5.314;2022-08-21T16:09:21;23.80;99.90
13561;DHT22;6852;51.686;5.314;2022-08-21T16:11:48;23.70;99.90
13561;DHT22;6852;51.686;5.314;2022-08-21T16:14:16;23.70;99.90
13561;DHT22;6852;51.686;5.314;2022-08-21T16:16:43;23.90;99.90
13561;DHT22;6852;51.686;5.314;2022-08-21T16:19:11;23.70;99.90
13561;DHT22;6852;51.686;5.314;2022-08-21T16:21:39;23.50;99.90
13561;DHT22;6852;51.686;5.314;2022-08-21T16:24:06;23.50;99.90
13561;DHT22;6852;51.686;5.314;2022-08-21T16:26:33;23.40;99.90
13561;DHT22;6852;51.686;5.314;2022-08-21T16:29:00;23.50;99.90
13561;DHT22;6852;51.686;5.314;2022-08-21T16:31:30;23.40;99.90
13561;DHT22;6852;51.686;5.314;2022-08-21T16:33:58;23.30;99.90
13561;DHT22;6852;51.686;5.314;2022-08-21T16:36:26;23.30;99.90
13561;DHT22;6852;51.686;5.314;2022-08-21T16:38:57;23.40;99.90
13561;DHT22;6852;51.686;5.314;2022-08-21T16:41:27;23.30;99.90
13561;DHT22;6852;51.686;5.314;2022-08-21T16:43:56;23.10;99.90
13561;DHT22;6852;51.686;5.314;2022-08-21T16:46:22;23.20;99.90
13561;DHT22;6852;51.686;5.314;2022-08-21T16:48:50;23.20;99.90
13561;DHT22;6852;51.686;5.314;2022-08-21T16:51:17;23.10;99.90
13561;DHT22;6852;51.686;5.314;2022-08-21T16:53:44;23.10;99.90
13561;DHT22;6852;51.686;5.314;2022-08-21T16:56:13;23.00;99.90
13561;DHT22;6852;51.686;5.314;2022-08-21T16:58:42;23.10;99.90
13561;DHT22;6852;51.686;5.314;2022-08-21T17:01:12;22.90;99.90
13561;DHT22;6852;51.686;5.314;2022-08-21T17:03:44;22.90;99.90
13561;DHT22;6852;51.686;5.314;2022-08-21T17:06:13;22.90;99.90
13561;DHT22;6852;51.686;5.314;2022-08-21T17:08:40;22.90;99.90
13561;DHT22;6852;51.686;5.314;2022-08-21T17:11:13;23.00;99.90
13561;DHT22;6852;51.686;5.314;2022-08-21T17:14:03;22.80;99.90
13561;DHT22;6852;51.686;5.314;2022-08-21T17:16:30;22.60;99.90
13561;DHT22;6852;51.686;5.314;2022-08-21T17:18:57;22.60;99.90
13561;DHT22;6852;51.686;5.314;2022-08-21T17:21:24;22.60;99.90
13561;DHT22;6852;51.686;5.314;2022-08-21T17:23:51;22.60;99.90
13561;DHT22;6852;51.686;5.314;2022-08-21T17:26:18;22.50;99.90
13561;DHT22;6852;51.686;5.314;2022-08-21T17:28:45;22.40;99.90
13561;DHT22;6852;51.686;5.314;2022-08-21T17:31:13;22.50;99.90
13561;DHT22;6852;51.686;5.314;2022-08-21T17:33:45;22.50;99.90
13561;DHT22;6852;51.686;5.314;2022-08-21T17:36:24;22.40;99.90
13561;DHT22;6852;51.686;5.314;2022-08-21T17:38:52;22.30;99.90